createdAt,value
2023-04-27T00:00:07.701Z,58.66992
2023-04-27T00:00:37.712Z,58.9375
2023-04-27T00:01:07.692Z,58.79492
2023-04-27T00:01:37.699Z,58.61328
2023-04-27T00:02:07.755Z,58.80664
2023-04-27T00:02:37.851Z,58.81641
2023-04-27T00:03:07.987Z,59.09473
2023-04-27T00:03:37.795Z,59.16699
2023-04-27T00:04:07.820Z,59.32617
2023-04-27T00:04:37.993Z,59.4082
2023-04-27T00:05:07.811Z,59.05078
2023-04-27T00:05:37.764Z,59.31934
2023-04-27T00:06:07.823Z,59.38086
2023-04-27T00:06:37.694Z,59.41211
2023-04-27T00:07:07.723Z,58.93066
2023-04-27T00:07:37.696Z,58.96387
2023-04-27T00:08:07.703Z,59.20313
2023-04-27T00:08:37.700Z,58.87012
2023-04-27T00:09:07.714Z,58.74414
2023-04-27T00:09:37.706Z,58.65918
2023-04-27T00:10:07.710Z,58.26465
2023-04-27T00:10:37.714Z,57.87109
2023-04-27T00:11:07.707Z,57.87793
2023-04-27T00:11:37.711Z,58.04688
2023-04-27T00:12:07.704Z,58.34766
2023-04-27T00:12:37.705Z,58.33691
2023-04-27T00:13:07.706Z,58.35059
2023-04-27T00:13:37.700Z,58.63086
2023-04-27T00:14:07.704Z,58.48828
2023-04-27T00:14:37.700Z,58.67969
2023-04-27T00:15:07.698Z,59.30176
2023-04-27T00:15:37.711Z,59.6377
2023-04-27T00:16:07.714Z,59.66309
2023-04-27T00:16:37.816Z,59.70605
2023-04-27T00:17:07.702Z,59.76563
2023-04-27T00:17:37.790Z,59.85645
2023-04-27T00:18:07.741Z,59.90723
2023-04-27T00:18:37.692Z,59.44043
2023-04-27T00:19:07.696Z,59.11914
2023-04-27T00:19:37.699Z,59.34277
2023-04-27T00:20:07.696Z,59.25586
2023-04-27T00:20:37.693Z,58.97656
2023-04-27T00:21:07.699Z,58.94727
2023-04-27T00:21:37.692Z,58.72461
2023-04-27T00:22:07.699Z,59.04199
2023-04-27T00:22:37.715Z,59.13672
2023-04-27T00:23:07.700Z,59.13184
2023-04-27T00:23:37.698Z,58.7334
2023-04-27T00:24:07.705Z,59.09277
2023-04-27T00:24:37.709Z,59.24316
2023-04-27T00:25:07.701Z,59.12988
2023-04-27T00:25:37.699Z,58.82715
2023-04-27T00:26:07.699Z,58.40723
2023-04-27T00:26:37.704Z,58.01465
2023-04-27T00:27:07.701Z,57.83594
2023-04-27T00:27:37.705Z,58.37988
2023-04-27T00:28:07.700Z,58.57617
2023-04-27T00:28:37.703Z,58.29688
2023-04-27T00:29:07.693Z,58.2334
2023-04-27T00:29:37.697Z,58.45996
2023-04-27T00:30:07.703Z,58.33789
2023-04-27T00:30:37.728Z,58.07031
2023-04-27T00:31:07.714Z,58.50293
2023-04-27T00:31:37.788Z,58.24414
2023-04-27T00:32:07.791Z,57.9873
2023-04-27T00:32:37.729Z,58.25
2023-04-27T00:33:07.799Z,58.50879
2023-04-27T00:33:37.719Z,58.75586
2023-04-27T00:34:07.705Z,58.79492
2023-04-27T00:34:37.695Z,58.39258
2023-04-27T00:35:07.722Z,58.66016
2023-04-27T00:35:37.693Z,59.08691
2023-04-27T00:36:07.705Z,59.14551
2023-04-27T00:36:37.700Z,58.92871
2023-04-27T00:37:07.719Z,58.62793
2023-04-27T00:37:37.700Z,58.8584
2023-04-27T00:38:07.704Z,58.86133
2023-04-27T00:38:37.709Z,58.85059
2023-04-27T00:39:07.708Z,58.89355
2023-04-27T00:39:37.707Z,58.98926
2023-04-27T00:40:07.704Z,59.25391
2023-04-27T00:40:37.700Z,59.20801
2023-04-27T00:41:07.712Z,59.14063
2023-04-27T00:41:37.700Z,59.5918
2023-04-27T00:42:07.698Z,59.45508
2023-04-27T00:42:37.720Z,59.34375
2023-04-27T00:43:07.696Z,59.24414
2023-04-27T00:43:37.699Z,58.46875
2023-04-27T00:44:07.704Z,58.57031
2023-04-27T00:44:39.653Z,58.59375
2023-04-27T00:45:07.704Z,58.66992
2023-04-27T00:45:37.793Z,58.29492
2023-04-27T00:46:07.751Z,57.86816
2023-04-27T00:46:37.705Z,58.06641
2023-04-27T00:47:07.706Z,57.73633
2023-04-27T00:47:37.741Z,57.80371
2023-04-27T00:48:07.750Z,57.6123
2023-04-27T00:48:37.701Z,57.87402
2023-04-27T00:49:07.699Z,57.74707
2023-04-27T00:49:37.705Z,57.69141
2023-04-27T00:50:07.704Z,57.73535
2023-04-27T00:50:37.701Z,57.50098
2023-04-27T00:51:07.705Z,57.57715
2023-04-27T00:51:37.704Z,57.71777
2023-04-27T00:52:07.701Z,57.91504
2023-04-27T00:52:37.730Z,57.7959
2023-04-27T00:53:07.707Z,57.69629
2023-04-27T00:53:37.701Z,57.5459
2023-04-27T00:54:07.706Z,57.81738
2023-04-27T00:54:37.713Z,58.12012
2023-04-27T00:55:07.723Z,58.05957
2023-04-27T00:55:37.703Z,58.20508
2023-04-27T00:56:07.744Z,58.45996
2023-04-27T00:56:37.707Z,58.67285
2023-04-27T00:57:07.707Z,58.53809
2023-04-27T00:57:37.710Z,58.28809
2023-04-27T00:58:07.707Z,58.11523
2023-04-27T00:58:37.701Z,58.13574
2023-04-27T00:59:07.706Z,58.01953
2023-04-27T00:59:37.708Z,57.88086
2023-04-27T01:00:07.708Z,57.64551
2023-04-27T01:00:37.712Z,57.53223
2023-04-27T01:01:07.772Z,57.77441
2023-04-27T01:01:37.792Z,57.60254
2023-04-27T01:02:07.751Z,58.51367
2023-04-27T01:02:37.838Z,57.95996
2023-04-27T01:03:07.859Z,57.49805
2023-04-27T01:03:37.842Z,57.6084
2023-04-27T01:04:07.847Z,57.8457
2023-04-27T01:04:37.829Z,57.67285
2023-04-27T01:05:07.706Z,57.62012
2023-04-27T01:05:37.725Z,57.82617
2023-04-27T01:06:07.714Z,58.32324
2023-04-27T01:06:37.699Z,58.1377
2023-04-27T01:07:07.810Z,58.35449
2023-04-27T01:07:37.709Z,58.27734
2023-04-27T01:08:07.718Z,58.57031
2023-04-27T01:08:37.709Z,57.81152
2023-04-27T01:09:07.714Z,57.99414
2023-04-27T01:09:37.716Z,57.72363
2023-04-27T01:10:07.707Z,57.90625
2023-04-27T01:10:37.711Z,58.16016
2023-04-27T01:11:07.706Z,58.24512
2023-04-27T01:11:37.717Z,58.45898
2023-04-27T01:12:07.704Z,57.9502
2023-04-27T01:12:37.720Z,57.94238
2023-04-27T01:13:07.711Z,58.21191
2023-04-27T01:13:37.706Z,58.03809
2023-04-27T01:14:07.718Z,58.16895
2023-04-27T01:14:37.713Z,58.1582
2023-04-27T01:15:07.713Z,57.68652
2023-04-27T01:15:37.706Z,57.7627
2023-04-27T01:16:07.705Z,57.87109
2023-04-27T01:16:37.788Z,57.32324
2023-04-27T01:17:07.798Z,57.03711
2023-04-27T01:17:37.781Z,57.50684
2023-04-27T01:18:07.773Z,57.7666
2023-04-27T01:18:37.710Z,57.625
2023-04-27T01:19:07.723Z,57.66992
2023-04-27T01:19:37.705Z,57.59668
2023-04-27T01:20:07.706Z,57.58398
2023-04-27T01:20:37.711Z,58.05664
2023-04-27T01:21:07.719Z,58.15234
2023-04-27T01:21:37.705Z,58.09473
2023-04-27T01:22:07.725Z,58.55078
2023-04-27T01:22:37.710Z,58.76074
2023-04-27T01:23:07.714Z,58.61621
2023-04-27T01:23:37.709Z,58.50293
2023-04-27T01:24:07.731Z,58.6123
2023-04-27T01:24:37.704Z,58.28418
2023-04-27T01:25:07.714Z,58.15625
2023-04-27T01:25:37.715Z,58.125
2023-04-27T01:26:07.720Z,57.96582
2023-04-27T01:26:37.709Z,57.74316
2023-04-27T01:27:07.710Z,57.39355
2023-04-27T01:27:37.724Z,57.22656
2023-04-27T01:28:07.702Z,57.60742
2023-04-27T01:28:37.716Z,57.7998
2023-04-27T01:29:07.709Z,57.81934
2023-04-27T01:29:37.712Z,57.41016
2023-04-27T01:30:07.721Z,58.05762
2023-04-27T01:30:37.719Z,58.07422
2023-04-27T01:31:07.741Z,58.3291
2023-04-27T01:31:37.749Z,58.60352
2023-04-27T01:32:07.707Z,58.62012
2023-04-27T01:32:37.843Z,58.33789
2023-04-27T01:33:07.778Z,58.00586
2023-04-27T01:33:37.706Z,57.73926
2023-04-27T01:34:07.706Z,57.68848
2023-04-27T01:34:37.707Z,57.89355
2023-04-27T01:35:07.706Z,58.05371
2023-04-27T01:35:37.706Z,57.63574
2023-04-27T01:36:07.710Z,57.69336
2023-04-27T01:36:37.714Z,57.5127
2023-04-27T01:37:07.711Z,57.90234
2023-04-27T01:37:37.715Z,58.30957
2023-04-27T01:38:07.713Z,58.27344
2023-04-27T01:38:37.714Z,57.70215
2023-04-27T01:39:07.716Z,57.52246
2023-04-27T01:39:37.710Z,57.58008
2023-04-27T01:40:07.722Z,57.59277
2023-04-27T01:40:37.714Z,57.37891
2023-04-27T01:41:07.708Z,57.91699
2023-04-27T01:41:37.725Z,58.05566
2023-04-27T01:42:07.715Z,58.05273
2023-04-27T01:42:37.710Z,58.13574
2023-04-27T01:43:07.722Z,58.31445
2023-04-27T01:43:37.731Z,58.62402
2023-04-27T01:44:07.711Z,58.75879
2023-04-27T01:44:37.719Z,59.01172
2023-04-27T01:45:07.717Z,58.75
2023-04-27T01:45:37.718Z,58.55469
2023-04-27T01:46:07.731Z,58.80273
2023-04-27T01:46:37.773Z,59.01758
2023-04-27T01:47:07.724Z,58.29688
2023-04-27T01:47:37.758Z,58.29688
2023-04-27T01:48:07.755Z,58.5127
2023-04-27T01:48:37.725Z,58.63086
2023-04-27T01:49:07.720Z,58.5332
2023-04-27T01:49:37.714Z,58.21289
2023-04-27T01:50:07.724Z,58.20508
2023-04-27T01:50:37.721Z,58.20703
2023-04-27T01:51:07.728Z,57.78027
2023-04-27T01:51:37.725Z,57.65625
2023-04-27T01:52:07.722Z,57.38281
2023-04-27T01:52:37.722Z,57.49609
2023-04-27T01:53:07.720Z,57.40234
2023-04-27T01:53:37.724Z,58.00977
2023-04-27T01:54:07.725Z,57.50488
2023-04-27T01:54:37.721Z,57.57129
2023-04-27T01:55:07.733Z,57.83984
2023-04-27T01:55:37.716Z,57.48535
2023-04-27T01:56:07.718Z,57.39258
2023-04-27T01:56:37.718Z,57.14844
2023-04-27T01:57:07.721Z,56.80859
2023-04-27T01:57:37.720Z,56.55469
2023-04-27T01:58:07.720Z,56.82031
2023-04-27T01:58:37.727Z,56.69336
2023-04-27T01:59:07.732Z,57.05078
2023-04-27T01:59:37.732Z,57.26367
2023-04-27T02:00:07.744Z,57.17383
2023-04-27T02:00:37.716Z,57.01074
2023-04-27T02:01:07.721Z,57.06641
2023-04-27T02:01:37.914Z,57.16309
2023-04-27T02:02:07.809Z,57.76563
2023-04-27T02:02:37.958Z,58.2334
2023-04-27T02:03:07.788Z,58.39844
2023-04-27T02:03:37.868Z,58.60938
2023-04-27T02:04:08.034Z,58.57324
2023-04-27T02:04:37.800Z,58.13184
2023-04-27T02:05:07.729Z,57.75781
2023-04-27T02:05:37.725Z,57.68848
2023-04-27T02:06:07.725Z,57.49609
2023-04-27T02:06:37.735Z,57.5957
2023-04-27T02:07:07.725Z,57.64941
2023-04-27T02:07:37.724Z,57.93066
2023-04-27T02:08:07.734Z,57.65918
2023-04-27T02:08:37.728Z,57.9082
2023-04-27T02:09:07.726Z,58.3252
2023-04-27T02:09:37.728Z,57.97852
2023-04-27T02:10:07.746Z,57.59277
2023-04-27T02:10:37.722Z,57.77734
2023-04-27T02:11:07.747Z,57.29492
2023-04-27T02:11:37.728Z,57.42871
2023-04-27T02:12:07.723Z,58.05664
2023-04-27T02:12:37.723Z,58.00098
2023-04-27T02:13:07.731Z,57.87305
2023-04-27T02:13:37.726Z,57.61719
2023-04-27T02:14:07.730Z,57.53125
2023-04-27T02:14:37.729Z,58.27344
2023-04-27T02:15:07.735Z,58.43066
2023-04-27T02:15:37.720Z,57.96387
2023-04-27T02:16:07.762Z,58.03906
2023-04-27T02:16:37.912Z,58.00684
2023-04-27T02:17:07.727Z,57.65234
2023-04-27T02:17:37.776Z,57.62305
2023-04-27T02:18:07.765Z,57.97949
2023-04-27T02:18:37.727Z,58.20215
2023-04-27T02:19:07.753Z,58.41602
2023-04-27T02:19:37.724Z,58.84082
2023-04-27T02:20:07.750Z,58.65137
2023-04-27T02:20:37.728Z,59.03516
2023-04-27T02:21:07.722Z,58.30078
2023-04-27T02:21:37.766Z,57.79883
2023-04-27T02:22:07.726Z,57.60254
2023-04-27T02:22:37.725Z,57.35059
2023-04-27T02:23:07.773Z,57.63574
2023-04-27T02:23:37.809Z,57.63672
2023-04-27T02:24:07.792Z,57.88477
2023-04-27T02:24:37.766Z,57.74609
2023-04-27T02:25:07.730Z,57.03516
2023-04-27T02:25:37.727Z,57.62012
2023-04-27T02:26:07.726Z,57.5752
2023-04-27T02:26:37.798Z,57.32617
2023-04-27T02:27:07.727Z,57.3291
2023-04-27T02:27:37.751Z,57.58594
2023-04-27T02:28:07.732Z,57.28418
2023-04-27T02:28:37.726Z,56.9209
2023-04-27T02:29:07.776Z,56.2168
2023-04-27T02:29:37.768Z,56.25684
2023-04-27T02:30:07.738Z,56.23145
2023-04-27T02:30:37.736Z,56.0752
2023-04-27T02:31:07.796Z,56.4707
2023-04-27T02:31:37.809Z,55.94727
2023-04-27T02:32:07.797Z,55.55371
2023-04-27T02:32:37.815Z,55.96875
2023-04-27T02:33:07.847Z,56.64844
2023-04-27T02:33:37.735Z,56.50391
2023-04-27T02:34:07.730Z,56.24316
2023-04-27T02:34:37.730Z,56.27539
2023-04-27T02:35:07.791Z,56.23926
2023-04-27T02:35:37.802Z,56.26855
2023-04-27T02:36:07.727Z,55.87891
2023-04-27T02:36:37.736Z,55.33203
2023-04-27T02:37:07.737Z,55.15723
2023-04-27T02:37:37.729Z,55.10938
2023-04-27T02:38:07.745Z,54.91797
2023-04-27T02:38:37.734Z,54.98926
2023-04-27T02:39:07.728Z,55.17773
2023-04-27T02:39:37.734Z,55.32227
2023-04-27T02:40:07.734Z,55.68848
2023-04-27T02:40:37.739Z,55.98926
2023-04-27T02:41:07.731Z,55.86816
2023-04-27T02:41:37.724Z,55.75977
2023-04-27T02:42:07.745Z,55.58887
2023-04-27T02:42:37.733Z,55.10449
2023-04-27T02:43:07.730Z,54.92871
2023-04-27T02:43:37.728Z,54.82813
2023-04-27T02:44:07.733Z,55.37109
2023-04-27T02:44:37.733Z,55.11133
2023-04-27T02:45:07.750Z,54.97266
2023-04-27T02:45:37.724Z,54.42383
2023-04-27T02:46:07.766Z,55.35645
2023-04-27T02:46:37.761Z,55.85156
2023-04-27T02:47:07.858Z,56.08398
2023-04-27T02:47:37.824Z,56.02539
2023-04-27T02:48:07.802Z,55.64258
2023-04-27T02:48:37.756Z,55.89941
2023-04-27T02:49:07.738Z,55.70313
2023-04-27T02:49:38.151Z,55.45508
2023-04-27T02:50:07.742Z,55.18652
2023-04-27T02:50:37.726Z,54.82422
2023-04-27T02:51:07.763Z,54.58398
2023-04-27T02:51:37.756Z,54.49316
2023-04-27T02:52:07.736Z,54.54395
2023-04-27T02:52:37.744Z,54.71094
2023-04-27T02:53:07.735Z,55.30566
2023-04-27T02:53:37.740Z,55.21484
2023-04-27T02:54:07.743Z,55.35254
2023-04-27T02:54:37.725Z,55.76953
2023-04-27T02:55:07.732Z,55.3877
2023-04-27T02:55:37.738Z,55.59375
2023-04-27T02:56:07.728Z,56.38867
2023-04-27T02:56:37.736Z,56.60059
2023-04-27T02:57:07.725Z,56.89844
2023-04-27T02:57:37.726Z,56.92578
2023-04-27T02:58:07.732Z,55.84863
2023-04-27T02:58:37.734Z,55.76953
2023-04-27T02:59:07.733Z,55.46289
2023-04-27T02:59:37.729Z,54.98438
2023-04-27T03:00:07.729Z,54.99414
2023-04-27T03:00:37.731Z,55.50977
2023-04-27T03:01:07.789Z,55.95215
2023-04-27T03:01:37.830Z,55.88672
2023-04-27T03:02:07.742Z,56.33984
2023-04-27T03:02:37.876Z,55.51758
2023-04-27T03:03:07.871Z,55.92871
2023-04-27T03:03:37.927Z,56.14648
2023-04-27T03:04:07.969Z,56.19531
2023-04-27T03:04:37.775Z,56.91699
2023-04-27T03:05:07.729Z,56.16797
2023-04-27T03:05:37.732Z,56.10449
2023-04-27T03:06:07.734Z,55.73047
2023-04-27T03:06:37.738Z,55.73926
2023-04-27T03:07:07.731Z,56.30176
2023-04-27T03:07:37.736Z,55.9873
2023-04-27T03:08:07.746Z,55.17969
2023-04-27T03:08:37.736Z,55.03223
2023-04-27T03:09:07.762Z,54.76953
2023-04-27T03:09:37.734Z,55.43457
2023-04-27T03:10:07.744Z,55.33594
2023-04-27T03:10:37.739Z,56.02832
2023-04-27T03:11:07.728Z,55.8916
2023-04-27T03:11:37.738Z,55.08008
2023-04-27T03:12:07.729Z,54.61035
2023-04-27T03:12:37.735Z,54.8125
2023-04-27T03:13:07.737Z,54.7666
2023-04-27T03:13:37.741Z,55.58594
2023-04-27T03:14:07.735Z,55.35449
2023-04-27T03:14:37.741Z,54.85645
2023-04-27T03:15:07.733Z,54.28711
2023-04-27T03:15:37.738Z,53.66797
2023-04-27T03:16:07.774Z,53.84863
2023-04-27T03:16:37.794Z,54.6377
2023-04-27T03:17:07.733Z,54.44922
2023-04-27T03:17:37.770Z,54.01465
2023-04-27T03:18:07.884Z,54.61035
2023-04-27T03:18:37.741Z,54.20801
2023-04-27T03:19:07.735Z,54.91895
2023-04-27T03:19:37.740Z,55.00195
2023-04-27T03:20:07.737Z,54.38379
2023-04-27T03:20:37.741Z,53.69629
2023-04-27T03:21:07.745Z,53.41406
2023-04-27T03:21:37.730Z,53.1377
2023-04-27T03:22:07.745Z,52.26172
2023-04-27T03:22:37.740Z,52.16504
2023-04-27T03:23:07.747Z,52.1748
2023-04-27T03:23:37.734Z,53.16113
2023-04-27T03:24:07.742Z,53.67676
2023-04-27T03:24:37.746Z,53.13965
2023-04-27T03:25:07.737Z,53.33887
2023-04-27T03:25:37.735Z,53.08594
2023-04-27T03:26:07.747Z,52.84668
2023-04-27T03:26:37.737Z,52.85449
2023-04-27T03:27:07.739Z,53.26953
2023-04-27T03:27:37.733Z,53.00684
2023-04-27T03:28:07.733Z,52.21875
2023-04-27T03:28:37.738Z,52.35547
2023-04-27T03:29:07.744Z,51.70117
2023-04-27T03:29:37.736Z,51.56934
2023-04-27T03:30:07.738Z,52.25586
2023-04-27T03:30:37.740Z,51.91113
2023-04-27T03:31:07.737Z,51.83789
2023-04-27T03:31:37.835Z,51.99805
2023-04-27T03:32:07.802Z,51.88086
2023-04-27T03:32:37.761Z,51.34277
2023-04-27T03:33:07.816Z,50.53906
2023-04-27T03:33:37.758Z,50.05078
2023-04-27T03:34:07.747Z,49.92676
2023-04-27T03:34:37.734Z,49.81445
2023-04-27T03:35:07.740Z,49.92285
2023-04-27T03:35:37.743Z,50.25
2023-04-27T03:36:07.765Z,50.95898
2023-04-27T03:36:37.735Z,51.4375
2023-04-27T03:37:07.743Z,51.35449
2023-04-27T03:37:37.742Z,50.78516
2023-04-27T03:38:07.741Z,50.54883
2023-04-27T03:38:37.747Z,50.0752
2023-04-27T03:39:07.742Z,50.6416
2023-04-27T03:39:37.746Z,51.13184
2023-04-27T03:40:07.745Z,50.09082
2023-04-27T03:40:37.757Z,49.35059
2023-04-27T03:41:07.767Z,49.06836
2023-04-27T03:41:37.740Z,48.70996
2023-04-27T03:42:07.737Z,49.02246
2023-04-27T03:42:37.757Z,49.78027
2023-04-27T03:43:07.744Z,50.54785
2023-04-27T03:43:37.746Z,50.00977
2023-04-27T03:44:07.740Z,50.52344
2023-04-27T03:44:37.759Z,51.58984
2023-04-27T03:45:07.746Z,51.01563
2023-04-27T03:45:37.794Z,50.78223
2023-04-27T03:46:07.767Z,49.46191
2023-04-27T03:46:37.740Z,47.05762
2023-04-27T03:47:07.749Z,44.50781
2023-04-27T03:47:37.839Z,42.64258
2023-04-27T03:48:07.782Z,38.47266
2023-04-27T03:48:37.747Z,35.54297
2023-04-27T03:49:07.753Z,33.07813
2023-04-27T03:49:37.738Z,30.20703
2023-04-27T03:50:07.758Z,27.94434
2023-04-27T03:50:37.741Z,27.06934
2023-04-27T03:51:07.749Z,25.12207
2023-04-27T03:51:37.742Z,25.91016
2023-04-27T03:52:07.748Z,26.88281
2023-04-27T03:52:37.746Z,27.54004
2023-04-27T03:53:07.752Z,26.85449
2023-04-27T03:53:37.743Z,26.11328
2023-04-27T03:54:07.744Z,25.92285
2023-04-27T03:54:37.744Z,25.99805
2023-04-27T03:55:07.745Z,25.67969
2023-04-27T03:55:37.761Z,26.91406
2023-04-27T03:56:07.748Z,26.79883
2023-04-27T03:56:37.745Z,26.01367
2023-04-27T03:57:07.748Z,25.55664
2023-04-27T03:57:37.745Z,26.34375
2023-04-27T03:58:07.746Z,26.84277
2023-04-27T03:58:37.744Z,26.97168
2023-04-27T03:59:07.742Z,26.81152
2023-04-27T03:59:37.747Z,26.40723
2023-04-27T04:00:07.770Z,26.05566
2023-04-27T04:00:37.751Z,26.41406
2023-04-27T04:01:07.752Z,28.08594
2023-04-27T04:01:37.767Z,27.62793
2023-04-27T04:02:07.760Z,28.95605
2023-04-27T04:02:37.837Z,29.12988
2023-04-27T04:03:08.084Z,29.83984
2023-04-27T04:03:37.994Z,29.16699
2023-04-27T04:04:07.853Z,29.20703
2023-04-27T04:04:38.026Z,29.3457
2023-04-27T04:05:07.780Z,28.61914
2023-04-27T04:05:37.756Z,28.9209
2023-04-27T04:06:07.753Z,28.29688
2023-04-27T04:06:37.751Z,27.44434
2023-04-27T04:07:07.758Z,30.03223
2023-04-27T04:07:37.751Z,30.09961
2023-04-27T04:08:07.763Z,28.76563
2023-04-27T04:08:37.747Z,28.70215
2023-04-27T04:09:07.747Z,28.64941
2023-04-27T04:09:37.748Z,27.47266
2023-04-27T04:10:07.756Z,27.58496
2023-04-27T04:10:37.745Z,26.31152
2023-04-27T04:11:07.753Z,26.125
2023-04-27T04:11:37.748Z,26.1123
2023-04-27T04:12:07.749Z,26.7666
2023-04-27T04:12:37.759Z,26.45605
2023-04-27T04:13:07.753Z,25.99219
2023-04-27T04:13:37.747Z,25.30469
2023-04-27T04:14:07.752Z,25.76367
2023-04-27T04:14:37.758Z,25.35449
2023-04-27T04:15:07.756Z,25.02539
2023-04-27T04:15:37.802Z,24.99023
2023-04-27T04:16:07.832Z,24.7666
2023-04-27T04:16:37.753Z,25.0791
2023-04-27T04:17:07.748Z,25.94238
2023-04-27T04:17:37.784Z,26.51563
2023-04-27T04:18:07.780Z,25.64844
2023-04-27T04:18:37.767Z,23.87891
2023-04-27T04:19:07.773Z,24.00293
2023-04-27T04:19:37.750Z,23.19531
2023-04-27T04:20:07.752Z,23.02832
2023-04-27T04:20:37.755Z,23.03906
2023-04-27T04:21:07.754Z,23.55371
2023-04-27T04:21:37.753Z,22.95117
2023-04-27T04:22:07.753Z,22.56348
2023-04-27T04:22:37.766Z,22.23047
2023-04-27T04:23:07.772Z,22.2627
2023-04-27T04:23:37.755Z,21.76367
2023-04-27T04:24:07.750Z,21.81445
2023-04-27T04:24:37.769Z,21.11035
2023-04-27T04:25:07.800Z,20.13867
2023-04-27T04:25:37.761Z,19.46191
2023-04-27T04:26:07.764Z,20.58301
2023-04-27T04:26:37.755Z,20.41602
2023-04-27T04:27:07.774Z,19.92969
2023-04-27T04:27:37.753Z,21.2334
2023-04-27T04:28:07.756Z,20.33398
2023-04-27T04:28:37.757Z,20.27734
2023-04-27T04:29:10.730Z,21.04883
2023-04-27T04:29:38.671Z,20.58105
2023-04-27T04:30:07.766Z,22.20313
2023-04-27T04:30:37.764Z,23.51074
2023-04-27T04:31:07.811Z,23.59082
2023-04-27T04:31:37.805Z,23.69824
2023-04-27T04:32:07.772Z,23.31445
2023-04-27T04:32:38.038Z,22.3418
2023-04-27T04:33:07.829Z,22.63672
2023-04-27T04:33:37.760Z,22.59375
2023-04-27T04:34:07.768Z,22.08691
2023-04-27T04:34:37.761Z,23.4375
2023-04-27T04:35:07.769Z,24.34863
2023-04-27T04:35:37.761Z,24.68555
2023-04-27T04:36:07.770Z,23.46094
2023-04-27T04:36:37.761Z,23.15918
2023-04-27T04:37:07.759Z,24.7207
2023-04-27T04:37:37.771Z,24.01465
2023-04-27T04:38:07.771Z,23.63379
2023-04-27T04:38:37.781Z,22.80273
2023-04-27T04:39:07.772Z,23.42676
2023-04-27T04:39:37.762Z,23.43945
2023-04-27T04:40:07.757Z,22.33105
2023-04-27T04:40:37.770Z,20.71191
2023-04-27T04:41:07.758Z,20.12402
2023-04-27T04:41:37.765Z,21.13281
2023-04-27T04:42:07.778Z,21.91211
2023-04-27T04:42:37.771Z,22.38086
2023-04-27T04:43:07.769Z,22.8584
2023-04-27T04:43:37.760Z,21.99512
2023-04-27T04:44:07.764Z,21.25586
2023-04-27T04:44:37.762Z,20.06641
2023-04-27T04:45:07.773Z,20.46191
2023-04-27T04:45:37.765Z,20.36523
2023-04-27T04:46:07.813Z,20.14551
2023-04-27T04:46:37.955Z,18.91992
2023-04-27T04:47:07.766Z,19.37305
2023-04-27T04:47:37.811Z,19.63672
2023-04-27T04:48:07.768Z,19.66992
2023-04-27T04:48:37.767Z,18.92578
2023-04-27T04:49:07.765Z,18.94336
2023-04-27T04:49:37.764Z,19.77539
2023-04-27T04:50:07.772Z,20.38281
2023-04-27T04:50:37.764Z,22.68164
2023-04-27T04:51:07.767Z,24.71875
2023-04-27T04:51:37.763Z,27.44531
2023-04-27T04:52:07.764Z,28.99414
2023-04-27T04:52:37.764Z,30.15918
2023-04-27T04:53:07.769Z,31.80273
2023-04-27T04:53:37.762Z,33.5332
2023-04-27T04:54:07.767Z,34.22461
2023-04-27T04:54:37.773Z,34.92188
2023-04-27T04:55:07.769Z,34.95117
2023-04-27T04:55:37.763Z,35.1084
2023-04-27T04:56:07.786Z,35.50586
2023-04-27T04:56:37.770Z,36.57813
2023-04-27T04:57:07.809Z,36.05762
2023-04-27T04:57:37.776Z,36.60254
2023-04-27T04:58:07.776Z,36.49316
2023-04-27T04:58:37.771Z,36.02539
2023-04-27T04:59:07.774Z,35.77051
2023-04-27T04:59:37.773Z,35.19238
2023-04-27T05:00:07.761Z,34.00977
2023-04-27T05:00:37.768Z,32.37891
2023-04-27T05:01:07.854Z,30.93066
2023-04-27T05:01:37.831Z,29.95313
2023-04-27T05:02:07.771Z,28.00781
2023-04-27T05:02:37.901Z,26.29492
2023-04-27T05:03:08.055Z,25.75195
2023-04-27T05:03:37.999Z,25.03613
2023-04-27T05:04:07.956Z,24.61523
2023-04-27T05:04:37.944Z,25.05664
2023-04-27T05:05:07.784Z,24.83301
2023-04-27T05:05:37.773Z,25.97168
2023-04-27T05:06:07.772Z,26.02734
2023-04-27T05:06:37.781Z,27.71289
2023-04-27T05:07:07.775Z,27.9209
2023-04-27T05:07:37.778Z,27.32813
2023-04-27T05:08:07.773Z,26.09375
2023-04-27T05:08:37.776Z,25.51758
2023-04-27T05:09:07.790Z,24.72168
2023-04-27T05:09:37.772Z,22.78711
2023-04-27T05:10:07.828Z,21.38672
2023-04-27T05:10:37.771Z,20.55957
2023-04-27T05:11:07.789Z,19.83008
2023-04-27T05:11:37.773Z,19.73535
2023-04-27T05:12:07.773Z,19.70703
2023-04-27T05:12:37.775Z,19.81152
2023-04-27T05:13:07.784Z,21.16113
2023-04-27T05:13:37.775Z,20.40234
2023-04-27T05:14:07.775Z,20.43945
2023-04-27T05:14:37.773Z,19.91309
2023-04-27T05:15:07.794Z,18.95117
2023-04-27T05:15:37.775Z,17.97363
2023-04-27T05:16:07.848Z,17.67188
2023-04-27T05:16:37.920Z,19.14258
2023-04-27T05:17:07.776Z,20.85254
2023-04-27T05:17:37.809Z,20.77832
2023-04-27T05:18:07.819Z,19.85449
2023-04-27T05:18:37.782Z,18.81348
2023-04-27T05:19:07.787Z,18.85156
2023-04-27T05:19:37.783Z,19.64941
2023-04-27T05:20:07.792Z,19.17285
2023-04-27T05:20:37.775Z,18.25879
2023-04-27T05:21:07.778Z,19.20508
2023-04-27T05:21:37.775Z,19.06738
2023-04-27T05:22:07.782Z,18.57031
2023-04-27T05:22:37.779Z,18.69531
2023-04-27T05:23:07.798Z,18.44922
2023-04-27T05:23:37.784Z,17.11426
2023-04-27T05:24:07.783Z,17.03711
2023-04-27T05:24:37.778Z,17.40527
2023-04-27T05:25:07.783Z,16.57617
2023-04-27T05:25:37.778Z,15.8125
2023-04-27T05:26:07.777Z,14.94141
2023-04-27T05:26:37.793Z,14.6084
2023-04-27T05:27:07.775Z,15.09375
2023-04-27T05:27:37.777Z,15.58203
2023-04-27T05:28:07.792Z,15.05273
2023-04-27T05:28:37.782Z,15.35156
2023-04-27T05:29:07.782Z,15.25977
2023-04-27T05:29:37.780Z,15.80859
2023-04-27T05:30:07.779Z,15.76074
2023-04-27T05:30:37.779Z,15.31055
2023-04-27T05:31:07.783Z,14.86426
2023-04-27T05:31:37.815Z,15.20117
2023-04-27T05:32:07.850Z,15.05371
2023-04-27T05:32:37.856Z,14.75586
2023-04-27T05:33:07.953Z,14.79492
2023-04-27T05:33:37.786Z,15.3125
2023-04-27T05:34:07.780Z,15.29102
2023-04-27T05:34:37.787Z,15.09277
2023-04-27T05:35:07.790Z,15.28711
2023-04-27T05:35:37.778Z,15.59668
2023-04-27T05:36:07.807Z,15.72363
2023-04-27T05:36:37.783Z,15.41992
2023-04-27T05:37:07.798Z,15.47266
2023-04-27T05:37:37.789Z,15.20801
2023-04-27T05:38:07.785Z,14.5459
2023-04-27T05:38:37.792Z,14.58887
2023-04-27T05:39:07.798Z,13.93457
2023-04-27T05:39:37.784Z,14.1377
2023-04-27T05:40:07.789Z,13.90918
2023-04-27T05:40:37.780Z,14.15332
2023-04-27T05:41:07.791Z,14.14746
2023-04-27T05:41:37.829Z,14.25781
2023-04-27T05:42:07.785Z,12.94531
2023-04-27T05:42:37.791Z,12.71191
2023-04-27T05:43:07.786Z,12.58105
2023-04-27T05:43:37.789Z,12.84375
2023-04-27T05:44:07.788Z,13.5459
2023-04-27T05:44:37.786Z,13.71777
2023-04-27T05:45:07.787Z,14.89551
2023-04-27T05:45:37.807Z,14.84961
2023-04-27T05:46:07.837Z,15.56055
2023-04-27T05:46:38.823Z,15.74219
2023-04-27T05:47:07.785Z,16.08594
2023-04-27T05:47:37.836Z,16.28027
2023-04-27T05:48:07.850Z,16.00391
2023-04-27T05:48:37.795Z,15.54785
2023-04-27T05:49:07.801Z,15.99219
2023-04-27T05:49:37.790Z,16.12109
2023-04-27T05:50:07.824Z,15.80957
2023-04-27T05:50:37.798Z,15.28125
2023-04-27T05:51:07.791Z,15.49023
2023-04-27T05:51:37.800Z,16.16211
2023-04-27T05:52:07.796Z,16.20117
2023-04-27T05:52:38.342Z,15.11426
2023-04-27T05:53:07.822Z,14.35449